createdAt,value
2019-01-18T00:01:43.833Z,4.67
2019-01-18T00:04:14.257Z,4.15
2019-01-18T00:06:42.132Z,4.60
2019-01-18T00:09:10.075Z,4.05
2019-01-18T00:11:37.900Z,4.70
2019-01-18T00:14:05.705Z,4.90
2019-01-18T00:16:35.869Z,4.12
2019-01-18T00:19:03.746Z,4.65
2019-01-18T00:21:33.951Z,4.20
2019-01-18T00:24:01.806Z,4.60
2019-01-18T00:26:29.684Z,4.10
2019-01-18T00:28:57.493Z,3.60
2019-01-18T00:31:44.434Z,4.00
2019-01-18T00:34:12.305Z,4.10
2019-01-18T00:36:40.183Z,3.85
2019-01-18T00:39:08.267Z,3.75
2019-01-18T00:41:36.205Z,3.50
2019-01-18T00:49:59.490Z,3.17
2019-01-18T00:52:27.350Z,3.10
2019-01-18T00:55:14.283Z,3.45
2019-01-18T00:57:42.182Z,2.80
2019-01-18T01:00:29.170Z,3.40
2019-01-18T01:02:57.288Z,2.85
2019-01-18T01:08:32.870Z,3.00
2019-01-18T01:11:00.727Z,3.10
2019-01-18T01:13:28.601Z,3.10
2019-01-18T01:15:56.461Z,2.83
2019-01-18T01:18:41.542Z,3.72
2019-01-18T01:21:09.400Z,2.95
2019-01-18T01:23:39.381Z,2.22
2019-01-18T01:26:07.193Z,2.33
2019-01-18T01:28:35.085Z,2.80
2019-01-18T01:31:02.908Z,2.52
2019-01-18T01:33:30.768Z,2.50
2019-01-18T01:35:58.737Z,2.62
2019-01-18T01:38:26.657Z,2.90
2019-01-18T01:41:13.582Z,3.15
2019-01-18T01:43:41.450Z,3.85
2019-01-18T01:46:09.273Z,2.85
2019-01-18T01:48:37.147Z,3.20
2019-01-18T01:51:05.034Z,3.17
2019-01-18T01:53:33.276Z,2.80
2019-01-18T01:56:01.234Z,3.05
2019-01-18T01:58:29.064Z,3.37
2019-01-18T02:00:56.903Z,2.55
2019-01-18T02:03:24.686Z,2.72
2019-01-18T02:05:52.526Z,3.42
2019-01-18T02:08:20.361Z,3.00
2019-01-18T02:10:48.235Z,3.15
2019-01-18T02:13:35.124Z,3.40
2019-01-18T02:16:03.308Z,3.25
2019-01-18T02:21:19.762Z,3.37
2019-01-18T02:23:47.575Z,3.58
2019-01-18T02:26:15.413Z,4.22
2019-01-18T02:28:43.237Z,3.30
2019-01-18T02:31:11.109Z,3.75
2019-01-18T02:33:38.929Z,3.83
2019-01-18T02:36:07.022Z,3.75
2019-01-18T02:38:34.830Z,3.25
2019-01-18T02:41:02.772Z,3.95
2019-01-18T02:43:30.621Z,4.55
2019-01-18T02:45:58.510Z,4.00
2019-01-18T02:48:26.346Z,4.12
2019-01-18T02:50:54.171Z,4.00
2019-01-18T02:53:22.056Z,3.67
2019-01-18T02:55:49.978Z,3.55
2019-01-18T02:58:17.831Z,3.80
2019-01-18T03:00:45.651Z,5.35
2019-01-18T03:03:13.501Z,4.40
2019-01-18T03:05:41.364Z,4.15
2019-01-18T03:08:09.333Z,4.50
2019-01-18T03:10:56.149Z,4.75
2019-01-18T03:13:24.007Z,4.50
2019-01-18T03:15:51.845Z,4.45
2019-01-18T03:18:19.709Z,5.17
2019-01-18T03:20:47.542Z,4.85
2019-01-18T03:26:09.457Z,5.25
2019-01-18T03:28:37.293Z,4.95
2019-01-18T03:31:05.160Z,4.70
2019-01-18T03:33:33.038Z,4.95
2019-01-18T03:36:00.882Z,4.95
2019-01-18T03:38:28.765Z,4.75
2019-01-18T03:40:56.653Z,4.87
2019-01-18T03:43:24.494Z,4.70
2019-01-18T03:45:52.323Z,5.17
2019-01-18T03:48:20.214Z,5.42
2019-01-18T03:50:48.034Z,4.90
2019-01-18T03:53:15.878Z,4.80
2019-01-18T03:56:02.825Z,6.08
2019-01-18T03:58:30.742Z,5.05
2019-01-18T04:00:58.562Z,5.28
2019-01-18T04:03:26.413Z,4.42
2019-01-18T04:05:54.263Z,5.10
2019-01-18T04:08:22.107Z,5.40
2019-01-18T04:10:49.950Z,5.33
2019-01-18T04:13:17.765Z,5.25
2019-01-18T04:15:45.625Z,5.60
2019-01-18T04:18:13.728Z,5.50
2019-01-18T04:20:41.594Z,5.62
2019-01-18T04:23:09.463Z,6.58
2019-01-18T04:25:37.425Z,5.50
2019-01-18T04:28:05.297Z,5.60
2019-01-18T04:30:33.823Z,5.05
2019-01-18T04:33:02.744Z,5.20
2019-01-18T04:35:30.641Z,5.30
2019-01-18T04:37:58.522Z,5.55
2019-01-18T04:48:26.809Z,7.00
2019-01-18T04:50:54.673Z,5.50
2019-01-18T04:53:24.790Z,4.78
2019-01-18T04:55:52.761Z,5.20
2019-01-18T04:58:20.593Z,6.10
2019-01-18T05:03:42.249Z,6.05
2019-01-18T05:06:10.117Z,5.95
2019-01-18T05:08:37.991Z,5.25
2019-01-18T05:11:05.835Z,5.92
2019-01-18T05:13:52.738Z,6.10
2019-01-18T05:16:22.904Z,5.47
2019-01-18T05:18:50.768Z,5.87
2019-01-18T05:21:19.042Z,5.40
2019-01-18T05:23:46.990Z,5.25
2019-01-18T05:26:33.910Z,6.10
2019-01-18T05:29:01.800Z,6.03
2019-01-18T05:31:29.626Z,5.47
2019-01-18T05:33:57.509Z,5.30
2019-01-18T05:36:26.278Z,5.30
2019-01-18T05:38:54.129Z,5.55
2019-01-18T05:41:22.049Z,5.00
2019-01-18T05:43:49.926Z,5.83
2019-01-18T05:46:20.279Z,5.80
2019-01-18T05:48:48.160Z,5.53
2019-01-18T05:51:16.379Z,7.45
2019-01-18T05:53:44.230Z,7.03
2019-01-18T05:56:12.131Z,6.70
2019-01-18T05:58:40.009Z,8.15
2019-01-18T06:01:09.787Z,7.95
2019-01-18T06:03:37.983Z,7.92
2019-01-18T06:06:05.925Z,8.10
2019-01-18T06:08:34.031Z,8.40
2019-01-18T06:11:01.859Z,8.13
2019-01-18T06:13:29.688Z,8.38
2019-01-18T06:15:57.509Z,8.43
2019-01-18T06:18:25.349Z,9.00
2019-01-18T06:20:53.162Z,9.50
2019-01-18T06:23:21.172Z,7.87
2019-01-18T06:25:48.966Z,7.62
2019-01-18T06:28:16.886Z,6.35
2019-01-18T06:30:44.721Z,6.80
2019-01-18T06:33:12.524Z,7.55
2019-01-18T06:35:40.353Z,7.83
2019-01-18T06:38:08.165Z,7.67
2019-01-18T06:40:35.965Z,6.22
2019-01-18T06:43:03.866Z,6.12
2019-01-18T06:45:31.901Z,7.22
2019-01-18T06:47:59.696Z,6.00
2019-01-18T06:50:27.518Z,5.90
2019-01-18T06:52:55.334Z,6.42
2019-01-18T06:55:23.274Z,5.60
2019-01-18T06:57:51.043Z,7.17
2019-01-18T07:00:20.361Z,6.60
2019-01-18T07:02:48.149Z,6.28
2019-01-18T07:05:15.988Z,5.78
2019-01-18T07:07:43.784Z,6.10
2019-01-18T07:10:12.641Z,5.15
2019-01-18T07:12:40.424Z,6.92
2019-01-18T07:15:09.325Z,5.37
2019-01-18T07:17:37.190Z,5.78
2019-01-18T07:20:05.345Z,6.90
2019-01-18T07:22:33.141Z,7.17
2019-01-18T07:25:09.573Z,7.05
2019-01-18T07:27:37.399Z,7.42
2019-01-18T07:30:06.545Z,7.15
2019-01-18T07:32:34.390Z,7.70
2019-01-18T07:35:02.177Z,7.45
2019-01-18T07:37:29.995Z,7.72
2019-01-18T07:39:57.777Z,6.83
2019-01-18T07:42:25.603Z,7.65
2019-01-18T07:44:53.381Z,7.78
2019-01-18T07:47:21.212Z,7.60
2019-01-18T07:49:48.988Z,8.20
2019-01-18T07:52:16.814Z,7.58
2019-01-18T07:54:44.638Z,7.30
2019-01-18T07:57:12.493Z,7.80
2019-01-18T07:59:40.311Z,7.90
2019-01-18T08:02:08.102Z,6.85
2019-01-18T08:04:35.934Z,7.80
2019-01-18T08:09:37.050Z,9.15
2019-01-18T08:15:24.957Z,7.60
2019-01-18T08:17:52.797Z,7.50
2019-01-18T08:20:21.742Z,7.72
2019-01-18T08:22:49.565Z,7.28
2019-01-18T08:25:17.365Z,7.40
2019-01-18T08:27:45.152Z,6.17
2019-01-18T08:30:32.378Z,6.30
2019-01-18T08:33:00.172Z,5.28
2019-01-18T08:35:28.625Z,5.25
2019-01-18T08:37:56.408Z,4.80
2019-01-18T08:40:25.413Z,3.85
2019-01-18T08:42:53.214Z,4.62
2019-01-18T08:45:25.261Z,4.78
2019-01-18T08:47:53.039Z,5.22
2019-01-18T08:50:20.864Z,4.55
2019-01-18T08:52:48.679Z,6.17
2019-01-18T08:55:16.502Z,4.90
2019-01-18T08:57:44.306Z,5.50
2019-01-18T09:00:13.569Z,4.67
2019-01-18T09:02:41.361Z,5.47
2019-01-18T09:05:10.497Z,4.60
2019-01-18T09:07:38.293Z,4.67
2019-01-18T09:10:07.092Z,7.60
2019-01-18T09:12:35.005Z,5.10
2019-01-18T09:15:02.821Z,4.60
2019-01-18T09:17:30.617Z,4.22
2019-01-18T09:19:58.446Z,4.22
2019-01-18T09:22:26.237Z,3.55
2019-01-18T09:24:54.035Z,3.77
2019-01-18T09:27:21.878Z,3.85
2019-01-18T09:29:49.684Z,4.65
2019-01-18T09:32:17.494Z,4.37
2019-01-18T09:34:45.277Z,4.17
2019-01-18T09:37:13.208Z,3.95
2019-01-18T09:39:41.041Z,4.10
2019-01-18T09:42:08.858Z,4.33
2019-01-18T09:44:36.913Z,4.60
2019-01-18T09:47:04.729Z,5.08
2019-01-18T09:49:32.526Z,4.60
2019-01-18T09:52:00.337Z,4.00
2019-01-18T09:54:47.221Z,4.83
2019-01-18T09:57:15.067Z,4.22
2019-01-18T09:59:42.871Z,4.60
2019-01-18T10:02:10.670Z,3.95
2019-01-18T10:04:38.457Z,4.10
2019-01-18T10:07:06.275Z,3.92
2019-01-18T10:09:34.085Z,4.10
2019-01-18T10:12:01.929Z,4.05
2019-01-18T10:14:29.713Z,4.87
2019-01-18T10:16:57.523Z,4.62
2019-01-18T10:19:25.323Z,5.47
2019-01-18T10:21:55.436Z,5.08
2019-01-18T10:24:23.274Z,4.40
2019-01-18T10:26:51.144Z,4.60
2019-01-18T10:29:19.369Z,4.55
2019-01-18T10:31:47.240Z,5.00
2019-01-18T10:34:15.098Z,5.20
2019-01-18T10:36:43.003Z,5.67
2019-01-18T10:41:45.623Z,4.50
2019-01-18T10:44:13.453Z,4.85
2019-01-18T10:46:41.480Z,6.40
2019-01-18T10:49:09.484Z,5.20
2019-01-18T10:51:44.786Z,4.70
2019-01-18T10:54:12.656Z,4.20
2019-01-18T10:56:40.613Z,4.90
2019-01-18T10:59:08.474Z,4.45
2019-01-18T11:01:36.317Z,5.58
2019-01-18T11:09:32.209Z,5.35
2019-01-18T11:12:00.050Z,4.92
2019-01-18T11:14:27.933Z,5.25
2019-01-18T11:16:57.324Z,4.85
2019-01-18T11:19:25.207Z,4.90
2019-01-18T11:21:53.060Z,4.45
2019-01-18T11:27:15.479Z,4.25
2019-01-18T11:29:43.655Z,4.05
2019-01-18T11:32:13.818Z,3.92
2019-01-18T11:34:41.134Z,4.12
2019-01-18T11:37:28.067Z,4.60
2019-01-18T11:39:56.099Z,4.60
2019-01-18T11:42:23.933Z,4.20
2019-01-18T11:44:51.833Z,4.28
2019-01-18T11:47:19.701Z,4.12
2019-01-18T11:49:47.821Z,5.10
2019-01-18T11:52:15.670Z,4.12
2019-01-18T11:57:22.415Z,4.78
2019-01-18T11:59:50.621Z,4.65
2019-01-18T12:02:22.081Z,5.10
2019-01-18T12:04:48.357Z,4.67
2019-01-18T12:07:16.229Z,5.60
2019-01-18T12:09:44.110Z,5.30
2019-01-18T12:12:11.977Z,4.95
2019-01-18T12:14:39.829Z,5.42
2019-01-18T12:17:07.708Z,4.60
2019-01-18T12:19:36.306Z,4.55
2019-01-18T12:22:04.169Z,4.65
2019-01-18T12:24:32.044Z,4.65
2019-01-18T12:27:02.192Z,4.22
2019-01-18T12:29:30.114Z,5.55
2019-01-18T12:31:58.033Z,4.83
2019-01-18T12:34:25.872Z,5.33
2019-01-18T12:36:59.011Z,5.30
2019-01-18T12:39:23.274Z,4.55
2019-01-18T12:41:51.144Z,5.72
2019-01-18T12:44:21.045Z,4.80
2019-01-18T12:46:48.865Z,4.85
2019-01-18T12:49:16.662Z,4.83
2019-01-18T12:51:44.673Z,4.87
2019-01-18T12:54:12.553Z,4.22
2019-01-18T12:56:40.397Z,3.90
2019-01-18T12:59:08.214Z,4.90
2019-01-18T13:01:36.054Z,5.10
2019-01-18T13:04:08.181Z,4.45
2019-01-18T13:06:33.524Z,4.35
2019-01-18T13:09:01.387Z,4.00
2019-01-18T13:11:29.258Z,3.85
2019-01-18T13:13:57.105Z,3.47
2019-01-18T13:16:44.002Z,3.60
2019-01-18T13:21:47.906Z,3.27
2019-01-18T13:24:15.920Z,3.90
2019-01-18T13:26:43.818Z,3.70
2019-01-18T13:29:14.408Z,4.20
2019-01-18T13:31:42.262Z,3.92
2019-01-18T13:37:03.716Z,4.10
2019-01-18T13:39:31.600Z,3.08
2019-01-18T13:41:59.983Z,3.42
2019-01-18T13:47:02.901Z,4.03
2019-01-18T13:49:30.742Z,4.05
2019-01-18T13:51:58.848Z,4.90
2019-01-18T13:54:29.747Z,4.22
2019-01-18T13:56:57.877Z,4.50
2019-01-18T13:59:25.722Z,4.87
2019-01-18T14:01:53.529Z,4.70
2019-01-18T14:04:21.351Z,4.12
2019-01-18T14:06:49.182Z,4.85
2019-01-18T14:09:17.033Z,4.28
2019-01-18T14:11:44.869Z,5.15
2019-01-18T14:14:12.667Z,4.33
2019-01-18T14:16:40.481Z,4.67
2019-01-18T14:19:08.288Z,5.35
2019-01-18T14:21:36.157Z,5.15
2019-01-18T14:24:04.064Z,4.50
2019-01-18T14:26:31.892Z,3.70
2019-01-18T14:28:59.899Z,4.35
2019-01-18T14:31:27.771Z,4.20
2019-01-18T14:33:55.612Z,3.85
2019-01-18T14:36:23.450Z,4.80
2019-01-18T14:38:51.239Z,3.85
2019-01-18T14:41:19.095Z,3.37
2019-01-18T14:43:46.908Z,2.98
2019-01-18T14:46:14.758Z,3.05
2019-01-18T14:49:01.586Z,3.27
2019-01-18T14:51:29.426Z,3.55
2019-01-18T14:53:57.232Z,3.27
2019-01-18T14:56:25.105Z,2.70
2019-01-18T14:58:52.917Z,3.52
2019-01-18T15:01:20.749Z,3.35
2019-01-18T15:03:48.528Z,2.87
2019-01-18T15:06:16.359Z,3.12
2019-01-18T15:08:44.222Z,3.65
2019-01-18T15:11:12.039Z,3.02
2019-01-18T15:13:39.877Z,3.50
2019-01-18T15:16:07.694Z,3.50
2019-01-18T15:18:36.195Z,3.77
2019-01-18T15:21:04.274Z,3.77
2019-01-18T15:23:32.115Z,4.10
2019-01-18T15:25:59.923Z,4.10
2019-01-18T15:28:27.804Z,3.37
2019-01-18T15:30:55.668Z,3.87
2019-01-18T15:33:23.496Z,4.42
2019-01-18T15:35:51.310Z,4.25
2019-01-18T15:38:19.142Z,3.85
2019-01-18T15:43:36.142Z,4.12
2019-01-18T15:46:04.003Z,3.92
2019-01-18T15:48:31.871Z,3.45
2019-01-18T15:50:59.720Z,3.60
2019-01-18T15:53:27.536Z,4.62
2019-01-18T15:55:55.448Z,4.00
2019-01-18T15:58:23.373Z,3.70
2019-01-18T16:00:51.262Z,4.08
2019-01-18T16:03:19.209Z,4.10
2019-01-18T16:05:47.061Z,3.77
2019-01-18T16:08:14.852Z,3.90
2019-01-18T16:10:42.665Z,4.53
2019-01-18T16:13:11.057Z,4.25
2019-01-18T16:18:21.015Z,3.50
2019-01-18T16:20:48.854Z,4.97
2019-01-18T16:23:16.707Z,4.20
2019-01-18T16:25:44.580Z,4.15
2019-01-18T16:28:12.430Z,4.28
2019-01-18T16:30:40.397Z,4.55
2019-01-18T16:33:08.304Z,6.33
2019-01-18T16:35:36.169Z,5.30
2019-01-18T16:38:04.837Z,5.20
2019-01-18T16:40:33.077Z,4.53
2019-01-18T16:43:02.780Z,5.55
2019-01-18T16:45:30.651Z,4.25
2019-01-18T16:47:58.545Z,5.30
2019-01-18T16:50:26.436Z,5.47
2019-01-18T16:52:54.369Z,5.03
2019-01-18T16:55:22.259Z,5.00
2019-01-18T16:57:50.196Z,4.30
2019-01-18T17:00:38.009Z,5.67
2019-01-18T17:03:05.920Z,5.92
2019-01-18T17:05:52.947Z,6.05
2019-01-18T17:08:20.794Z,6.58
2019-01-18T17:10:48.685Z,6.10
2019-01-18T17:13:16.579Z,6.30
2019-01-18T17:15:44.448Z,5.97
2019-01-18T17:18:13.031Z,6.60
2019-01-18T17:20:42.533Z,6.75
2019-01-18T17:23:10.570Z,6.55
2019-01-18T17:25:38.447Z,8.18
2019-01-18T17:28:06.390Z,10.03
2019-01-18T17:30:34.375Z,7.05
2019-01-18T17:33:02.229Z,7.80
2019-01-18T17:35:32.217Z,8.03
2019-01-18T17:38:02.402Z,8.18
2019-01-18T17:43:58.902Z,6.90
2019-01-18T17:46:45.863Z,7.45
2019-01-18T17:49:32.792Z,6.00
2019-01-18T17:52:19.677Z,6.08
2019-01-18T17:54:49.928Z,5.75
2019-01-18T17:57:36.914Z,5.70
2019-01-18T18:00:23.911Z,6.35
2019-01-18T18:03:10.829Z,6.25
2019-01-18T18:11:39.078Z,6.05
2019-01-18T18:14:26.203Z,6.60
2019-01-18T18:20:24.902Z,6.00
2019-01-18T18:23:11.823Z,6.33
2019-01-18T18:25:58.762Z,6.65
2019-01-18T18:28:45.665Z,6.20
2019-01-18T18:31:32.674Z,6.78
2019-01-18T18:34:19.848Z,6.90
2019-01-18T18:37:06.727Z,9.03
2019-01-18T18:39:53.636Z,9.20
2019-01-18T18:42:40.509Z,7.40
2019-01-18T18:45:27.422Z,7.10
2019-01-18T18:48:14.341Z,6.40
2019-01-18T18:51:01.480Z,6.45
2019-01-18T18:53:48.445Z,5.67
2019-01-18T18:56:35.505Z,6.62
2019-01-18T18:59:18.737Z,5.60
2019-01-18T19:02:05.669Z,5.80
2019-01-18T19:04:52.565Z,5.30
2019-01-18T19:07:39.472Z,4.78
2019-01-18T19:10:26.405Z,4.70
2019-01-18T19:13:13.319Z,5.53
2019-01-18T19:16:00.214Z,4.58
2019-01-18T19:18:47.100Z,5.47
2019-01-18T19:21:34.062Z,5.58
2019-01-18T19:24:20.951Z,3.83
2019-01-18T19:27:07.902Z,4.70
2019-01-18T19:29:54.793Z,5.05
2019-01-18T19:32:41.790Z,5.62
2019-01-18T19:35:28.671Z,5.22
2019-01-18T19:38:15.592Z,6.20
2019-01-18T19:41:02.593Z,6.35
2019-01-18T19:43:49.522Z,7.03
2019-01-18T19:46:36.453Z,6.60
2019-01-18T19:49:23.365Z,6.20
2019-01-18T19:52:10.281Z,7.22
2019-01-18T19:54:57.180Z,7.33
2019-01-18T19:57:44.098Z,6.05
2019-01-18T20:00:30.986Z,7.40
2019-01-18T20:03:12.914Z,7.30
2019-01-18T20:05:59.846Z,7.25
2019-01-18T20:08:46.755Z,7.15
2019-01-18T20:11:33.698Z,8.48
2019-01-18T20:14:20.584Z,7.83
2019-01-18T20:17:07.466Z,7.87
2019-01-18T20:19:54.390Z,6.65
2019-01-18T20:22:41.253Z,6.53
2019-01-18T20:25:28.207Z,6.97
2019-01-18T20:28:15.082Z,6.35
2019-01-18T20:30:50.527Z,7.45
2019-01-18T20:33:37.403Z,7.22
2019-01-18T20:36:24.390Z,7.30
2019-01-18T20:38:57.285Z,7.55
2019-01-18T20:41:44.191Z,8.03
2019-01-18T20:44:19.835Z,6.85
2019-01-18T20:47:06.710Z,7.28
2019-01-18T20:49:53.637Z,6.15
2019-01-18T20:52:40.779Z,6.28
2019-01-18T20:55:29.219Z,7.00
2019-01-18T20:58:16.177Z,6.47
2019-01-18T21:01:03.188Z,6.62
2019-01-18T21:03:50.094Z,7.20
2019-01-18T21:06:37.118Z,5.95
2019-01-18T21:09:24.046Z,6.70
2019-01-18T21:11:55.178Z,5.35
2019-01-18T21:14:25.350Z,6.62
2019-01-18T21:17:12.257Z,6.60
2019-01-18T21:19:59.146Z,6.55
2019-01-18T21:22:46.076Z,6.55
2019-01-18T21:25:19.331Z,6.05
2019-01-18T21:28:06.233Z,5.85
2019-01-18T21:30:53.125Z,6.12
2019-01-18T21:33:40.059Z,6.28
2019-01-18T21:36:39.266Z,6.95
2019-01-18T21:39:15.652Z,6.05
2019-01-18T21:42:02.586Z,5.70
2019-01-18T21:44:49.489Z,5.65
2019-01-18T21:47:36.420Z,6.62
2019-01-18T21:50:23.435Z,5.92
2019-01-18T21:53:10.859Z,5.72
2019-01-18T21:55:57.763Z,6.83
2019-01-18T21:58:45.003Z,6.45
2019-01-18T22:01:32.014Z,6.25
2019-01-18T22:04:19.215Z,6.00
2019-01-18T22:07:06.234Z,6.50
2019-01-18T22:09:53.278Z,6.70
2019-01-18T22:12:40.179Z,6.33
2019-01-18T22:15:27.081Z,6.85
2019-01-18T22:18:13.949Z,6.05
2019-01-18T22:21:00.975Z,6.10
2019-01-18T22:23:47.888Z,6.62
2019-01-18T22:26:34.814Z,6.55
2019-01-18T22:29:21.742Z,6.42
2019-01-18T22:31:55.855Z,6.42
2019-01-18T22:34:47.716Z,6.12
2019-01-18T22:37:31.373Z,6.70
2019-01-18T22:40:18.298Z,6.45
2019-01-18T22:43:05.173Z,6.35
2019-01-18T22:45:52.090Z,6.28
2019-01-18T22:48:53.062Z,5.35
2019-01-18T22:51:27.717Z,5.87
2019-01-18T22:54:14.635Z,6.12
2019-01-18T22:57:02.207Z,5.75
2019-01-18T22:59:50.182Z,7.65
2019-01-18T23:02:21.167Z,6.62
2019-01-18T23:05:08.044Z,10.50
2019-01-18T23:07:40.199Z,8.03
2019-01-18T23:10:27.090Z,7.37
2019-01-18T23:13:14.029Z,6.55
2019-01-18T23:16:00.929Z,6.65
2019-01-18T23:18:47.894Z,6.75
2019-01-18T23:21:34.836Z,6.40
2019-01-18T23:24:08.403Z,6.95
2019-01-18T23:26:55.338Z,7.17
2019-01-18T23:29:28.778Z,8.53
2019-01-18T23:32:15.645Z,8.60
2019-01-18T23:35:03.183Z,8.05
2019-01-18T23:37:51.132Z,6.87
2019-01-18T23:40:38.032Z,8.10
2019-01-18T23:43:09.919Z,9.58
2019-01-18T23:45:56.842Z,7.17
2019-01-18T23:48:44.049Z,7.05
2019-01-18T23:51:30.945Z,8.10
2019-01-18T23:54:17.861Z,8.43
2019-01-18T23:57:04.766Z,7.42
2019-01-18T23:59:51.699Z,7.45
